Time;durP1;ratioP1;P1;durP2;ratioP2;P2;SDS_P1;SDS_P2;PMS_P1;PMS_P2;Temp;Humidity;BMP_temperature;BMP_pressure;BME280_temperature;BME280_humidity;BME280_pressure;Samples;Min_cycle;Max_cycle;Signal;HPM_P1;HPM_P2
2022/09/04 00:02:30;;;;;;;0.80;0.80;;;;;;;17.06;77.36;98845.34;4893947;29;20056;-66
2022/09/04 00:05:09;;;;;;;1.20;1.10;;;;;;;17.06;77.57;98857.84;4887498;29;20520;-66
2022/09/04 00:07:46;;;;;;;2.20;1.35;;;;;;;17.05;77.45;98859.72;4896446;29;20064;-66
2022/09/04 00:10:37;;;;;;;1.08;1.08;;;;;;;17.04;77.07;98851.94;4897940;29;20515;-68
2022/09/04 00:13:10;;;;;;;0.88;0.88;;;;;;;17.01;76.97;98860.41;4900572;29;20048;-66
2022/09/04 00:15:56;;;;;;;1.40;1.30;;;;;;;16.95;77.00;98856.03;4900171;29;20135;-66
2022/09/04 00:18:40;;;;;;;0.90;0.90;;;;;;;16.92;77.20;98867.97;4898592;29;20052;-68
2022/09/04 00:21:06;;;;;;;0.70;0.70;;;;;;;16.91;77.37;98862.88;4898573;29;20040;-68
2022/09/04 00:23:43;;;;;;;0.60;0.60;;;;;;;16.90;76.88;98863.88;4899718;29;20036;-68
2022/09/04 00:26:26;;;;;;;0.70;0.70;;;;;;;16.89;77.45;98872.94;4898028;29;20052;-68
2022/09/04 00:28:57;;;;;;;0.80;0.80;;;;;;;16.89;76.92;98867.63;4898479;29;20061;-66
2022/09/04 00:31:37;;;;;;;0.77;0.77;;;;;;;16.87;77.07;98867.84;4914215;29;20408;-66
2022/09/04 00:34:44;;;;;;;0.73;0.70;;;;;;;16.86;77.13;98868.06;4890514;29;20100;-67
2022/09/04 00:37:19;;;;;;;0.60;0.60;;;;;;;16.87;77.28;98875.06;4862035;29;20502;-66
2022/09/04 00:40:13;;;;;;;0.73;0.73;;;;;;;16.89;76.88;98875.63;4862300;29;20060;-66
2022/09/04 00:43:12;;;;;;;0.50;0.50;;;;;;;16.89;76.71;98871.09;4862133;29;20056;-66
2022/09/04 00:46:17;;;;;;;0.70;0.70;;;;;;;16.88;76.95;98876.69;4862257;29;20072;-65
2022/09/04 00:49:02;;;;;;;0.60;0.60;;;;;;;16.85;76.77;98877.94;4858393;29;20435;-65
2022/09/04 00:51:40;;;;;;;1.40;1.30;;;;;;;16.81;76.35;98885.59;4861950;29;20049;-67
2022/09/04 00:54:25;;;;;;;1.27;1.10;;;;;;;16.78;76.63;98882.59;4862174;29;20049;-66
2022/09/04 00:57:17;;;;;;;1.17;1.13;;;;;;;16.74;76.64;98882.25;4861580;29;20053;-65
2022/09/04 00:59:58;;;;;;;0.98;0.98;;;;;;;16.68;76.70;98893.78;4860639;29;20054;-64
2022/09/04 01:02:40;;;;;;;0.75;0.75;;;;;;;16.63;77.09;98899.00;4865755;29;20433;-64
2022/09/04 01:09:56;;;;;;;0.98;0.80;;;;;;;16.56;76.86;98911.63;4898599;29;20096;-67
2022/09/04 01:12:50;;;;;;;0.60;0.60;;;;;;;16.54;76.62;98905.72;4898907;29;20490;-67
2022/09/04 01:15:40;;;;;;;0.60;0.60;;;;;;;16.53;77.05;98904.09;4882127;29;20052;-67
2022/09/04 01:18:13;;;;;;;0.60;0.60;;;;;;;16.49;76.84;98903.75;4881892;29;20112;-68
2022/09/04 01:21:09;;;;;;;0.60;0.60;;;;;;;16.51;77.13;98906.19;4897352;29;20059;-68
2022/09/04 01:23:50;;;;;;;0.70;0.70;;;;;;;16.51;76.82;98908.84;4897556;29;20064;-67
2022/09/04 01:26:31;;;;;;;0.57;0.57;;;;;;;16.52;77.00;98913.94;4898203;29;20056;-67
2022/09/04 01:29:20;;;;;;;0.50;0.50;;;;;;;16.48;76.89;98909.28;4897230;29;20104;-68
2022/09/04 01:31:57;;;;;;;0.52;0.52;;;;;;;16.47;76.81;98919.16;4897150;29;20049;-68
2022/09/04 01:34:34;;;;;;;0.60;0.60;;;;;;;16.45;76.65;98910.59;4880462;29;20053;-68
2022/09/04 01:37:40;;;;;;;0.90;0.90;;;;;;;16.42;76.39;98912.88;4881305;29;20059;-67
2022/09/04 01:40:55;;;;;;;0.65;0.65;;;;;;;16.37;76.53;98910.06;4898424;29;20461;-66
2022/09/04 01:43:23;;;;;;;0.60;0.60;;;;;;;16.33;76.81;98915.88;4884381;29;20057;-67
2022/09/04 01:46:20;;;;;;;0.60;0.60;;;;;;;16.32;76.58;98914.22;4898729;29;20058;-69
2022/09/04 01:49:00;;;;;;;0.57;0.57;;;;;;;16.31;76.61;98909.13;4896769;29;20398;-68
2022/09/04 01:51:55;;;;;;;0.50;0.50;;;;;;;16.28;76.32;98918.38;4897004;29;20104;-68
2022/09/04 01:54:41;;;;;;;0.70;0.70;;;;;;;16.28;76.38;98918.38;4898545;29;20044;-68
2022/09/04 01:57:23;;;;;;;0.70;0.70;;;;;;;16.27;76.35;98916.78;4897911;29;20048;-68
2022/09/04 02:00:32;;;;;;;0.70;0.70;;;;;;;16.22;76.26;98916.66;4898618;29;20051;-67
2022/09/04 02:03:21;;;;;;;0.70;0.70;;;;;;;16.15;76.49;98925.78;4855567;29;20045;-65
2022/09/04 02:06:09;;;;;;;0.60;0.60;;;;;;;16.10;76.67;98923.78;4888503;29;20474;-65
2022/09/04 02:08:54;;;;;;;0.93;0.60;;;;;;;16.12;76.75;98920.88;4877954;29;20057;-68
2022/09/04 02:11:28;;;;;;;0.68;0.68;;;;;;;16.10;76.62;98924.59;4878951;29;20045;-68
2022/09/04 02:14:07;;;;;;;0.70;0.70;;;;;;;16.10;76.42;98924.59;4879073;29;20147;-68
2022/09/04 02:16:55;;;;;;;1.13;0.80;;;;;;;16.09;76.57;98922.97;4877382;29;20101;-69
2022/09/04 02:19:40;;;;;;;0.57;0.57;;;;;;;16.07;76.54;98922.38;4878907;29;20049;-69
2022/09/04 02:22:25;;;;;;;0.40;0.40;;;;;;;16.08;76.71;98920.50;4879159;29;20052;-68
2022/09/04 02:25:01;;;;;;;0.47;0.47;;;;;;;16.10;76.88;98927.25;4879126;29;20063;-69
2022/09/04 02:28:07;;;;;;;0.50;0.50;;;;;;;16.11;77.14;98928.06;4879183;29;20455;-67
2022/09/04 02:30:47;;;;;;;0.85;0.68;;;;;;;16.12;76.54;98928.88;4879419;29;20104;-67
2022/09/04 02:34:04;;;;;;;0.50;0.50;;;;;;;16.09;76.98;98932.84;4882217;29;20044;-69
2022/09/04 02:36:48;;;;;;;0.73;0.73;;;;;;;16.09;76.46;98941.63;4838975;29;20094;-67
2022/09/04 02:39:43;;;;;;;0.60;0.60;;;;;;;16.09;76.91;98938.16;4839523;29;20106;-66
2022/09/04 02:42:24;;;;;;;0.70;0.70;;;;;;;16.08;76.75;98934.69;4870228;29;20053;-69
2022/09/04 02:45:08;;;;;;;0.70;0.70;;;;;;;16.09;76.63;98933.63;4877183;29;20085;-68
2022/09/04 02:48:02;;;;;;;0.55;0.55;;;;;;;16.10;76.86;98929.94;4877144;29;20109;-68
2022/09/04 02:50:49;;;;;;;1.08;0.60;;;;;;;16.10;76.61;98940.59;4877087;29;20049;-68
2022/09/04 02:53:40;;;;;;;0.60;0.60;;;;;;;16.15;76.71;98936.44;4878757;29;20064;-68
2022/09/04 02:56:34;;;;;;;0.50;0.50;;;;;;;16.19;76.78;98949.09;4877032;29;20045;-68
2022/09/04 02:59:20;;;;;;;;;;;;;;;16.21;76.58;98947.03;4877661;29;20056;-68
2022/09/04 03:01:59;;;;;;;0.40;0.30;;;;;;;16.23;76.84;98947.59;4892888;29;20403;-68
2022/09/04 03:04:34;;;;;;;0.50;0.50;;;;;;;16.25;76.64;98947.41;4880639;29;20056;-68
2022/09/04 03:07:24;;;;;;;0.60;0.60;;;;;;;16.27;76.84;98948.78;4895887;29;20048;-67
2022/09/04 03:10:20;;;;;;;0.50;0.50;;;;;;;16.32;76.86;98951.56;4895717;29;20056;-67
2022/09/04 03:12:52;;;;;;;0.47;0.47;;;;;;;16.36;76.70;98946.59;4893941;29;20069;-65
2022/09/04 03:15:49;;;;;;;0.50;0.50;;;;;;;16.39;76.46;98946.16;4896964;29;20045;-67
2022/09/04 03:18:28;;;;;;;1.98;0.80;;;;;;;16.38;76.44;98949.06;4895428;29;20057;-65
2022/09/04 03:21:15;;;;;;;0.60;0.50;;;;;;;16.37;76.77;98947.41;4896795;29;20044;-66
2022/09/04 03:23:57;;;;;;;0.50;0.50;;;;;;;16.39;76.66;98953.34;4896857;29;20096;-66
2022/09/04 03:26:47;;;;;;;0.70;0.70;;;;;;;16.38;76.92;98955.22;4895407;29;20059;-66
2022/09/04 03:29:13;;;;;;;0.45;0.45;;;;;;;16.43;77.21;98955.34;4896985;29;20057;-67
2022/09/04 03:32:17;;;;;;;0.73;0.73;;;;;;;16.45;76.71;98961.28;4897061;29;20045;-66
2022/09/04 03:34:58;;;;;;;0.60;0.60;;;;;;;16.48;77.01;98954.66;4882682;29;20536;-66
2022/09/04 03:37:30;;;;;;;0.55;0.55;;;;;;;16.48;77.03;98947.47;4896802;29;20552;-66
2022/09/04 03:40:18;;;;;;;0.50;0.50;;;;;;;16.49;76.86;98951.78;4896842;29;20049;-67
2022/09/04 03:43:06;;;;;;;0.60;0.60;;;;;;;16.50;77.32;98955.25;4896776;29;20045;-64
2022/09/04 03:45:47;;;;;;;0.77;0.60;;;;;;;16.51;77.22;98951.53;4900007;29;20105;-65
2022/09/04 03:48:22;;;;;;;0.50;0.50;;;;;;;16.53;77.26;98962.78;4900512;29;20052;-65
2022/09/04 03:51:03;;;;;;;1.25;1.10;;;;;;;16.51;76.50;98951.53;4900082;29;20497;-65
2022/09/04 03:53:34;;;;;;;1.25;1.15;;;;;;;16.45;76.21;98957.78;4900380;29;20564;-65
2022/09/04 03:56:44;;;;;;;1.08;0.98;;;;;;;16.41;77.11;98957.44;4900493;29;20047;-64
2022/09/04 03:59:30;;;;;;;1.45;1.05;;;;;;;16.38;76.99;98965.06;4899072;29;20044;-66
2022/09/04 04:02:38;;;;;;;0.90;0.90;;;;;;;16.38;77.07;98962.41;5351333;23;20045;-69
2022/09/04 04:05:26;;;;;;;1.30;0.98;;;;;;;16.38;76.98;98965.88;4849940;29;20068;-69
2022/09/04 04:08:14;;;;;;;0.80;0.75;;;;;;;16.37;77.41;98966.94;4890089;29;20077;-69
2022/09/04 04:10:44;;;;;;;1.02;1.00;;;;;;;16.37;77.12;98974.09;4891904;29;20078;-69
2022/09/04 04:13:35;;;;;;;1.00;1.00;;;;;;;16.38;77.43;98973.88;4888088;29;20105;-68
2022/09/04 04:16:29;;;;;;;1.10;1.00;;;;;;;16.40;77.10;98977.13;4901183;23;20044;-66
2022/09/04 04:19:09;;;;;;;3.28;2.00;;;;;;;16.36;76.19;98978.63;4887726;29;20497;-66
2022/09/04 04:21:54;;;;;;;1.83;1.73;;;;;;;16.27;75.87;98982.66;4885587;29;20104;-67
2022/09/04 04:24:40;;;;;;;2.80;2.00;;;;;;;16.16;75.96;98986.88;4880124;29;20711;-67
2022/09/04 04:27:34;;;;;;;2.78;2.58;;;;;;;16.04;75.99;98988.66;4880895;29;20109;-67
2022/09/04 04:30:05;;;;;;;3.60;2.40;;;;;;;15.96;76.40;98986.28;4880866;29;20053;-68
2022/09/04 04:32:50;;;;;;;3.25;2.65;;;;;;;15.90;76.68;98989.88;4887202;29;20047;-68
2022/09/04 04:35:23;;;;;;;2.50;1.80;;;;;;;15.87;77.13;98999.13;4886510;29;20096;-67
2022/09/04 04:38:06;;;;;;;1.88;1.70;;;;;;;15.91;76.98;99002.97;4899426;29;20052;-68
2022/09/04 04:40:49;;;;;;;2.25;2.05;;;;;;;15.92;77.11;99006.44;4898561;29;20473;-68
2022/09/04 04:43:39;;;;;;;2.47;2.28;;;;;;;15.92;76.98;99009.09;4883013;29;20108;-67
2022/09/04 04:46:33;;;;;;;1.85;1.75;;;;;;;15.92;76.88;99011.78;4898372;29;20052;-68
2022/09/04 04:49:27;;;;;;;2.08;1.88;;;;;;;15.92;76.94;99011.78;4899681;29;20134;-68
2022/09/04 04:52:31;;;;;;;3.00;2.70;;;;;;;15.91;76.84;99013.63;4899963;29;20044;-69
2022/09/04 04:55:20;;;;;;;3.35;2.63;;;;;;;15.85;76.98;99012.69;4899381;29;20052;-69
2022/09/04 04:58:05;;;;;;;1.75;1.52;;;;;;;15.87;77.34;99030.28;4898077;29;20059;-69
2022/09/04 05:00:44;;;;;;;1.60;1.40;;;;;;;15.90;77.49;99020.00;4899321;29;20055;-68
2022/09/04 05:03:41;;;;;;;1.75;1.65;;;;;;;15.93;77.09;99022.22;4895260;29;20085;-68
2022/09/04 05:06:35;;;;;;;2.00;1.80;;;;;;;15.95;77.53;99035.31;4862118;29;20068;-69
2022/09/04 05:09:22;;;;;;;1.60;1.50;;;;;;;15.97;77.44;99033.28;4879231;29;20045;-68
2022/09/04 05:11:59;;;;;;;1.70;1.60;;;;;;;16.01;77.52;99042.47;4880116;29;20045;-68
2022/09/04 05:14:37;;;;;;;1.73;1.63;;;;;;;16.02;77.18;99036.09;4880384;29;20045;-68
2022/09/04 05:17:16;;;;;;;1.40;1.30;;;;;;;16.01;77.11;99043.28;4879671;29;20049;-68
2022/09/04 05:20:33;;;;;;;1.10;0.98;;;;;;;16.02;77.48;99044.91;4880054;29;20108;-68
2022/09/04 05:23:28;;;;;;;0.80;0.80;;;;;;;16.05;77.65;99039.13;4868596;29;20056;-68
2022/09/04 05:26:32;;;;;;;3.00;2.10;;;;;;;16.08;77.29;99049.34;4879969;29;20061;-68
2022/09/04 05:29:35;;;;;;;2.20;1.90;;;;;;;16.08;76.57;99051.19;4878873;29;20068;-68
2022/09/04 05:32:27;;;;;;;2.60;2.40;;;;;;;16.09;76.76;99063.50;4881019;29;20041;-67
2022/09/04 05:35:16;;;;;;;1.77;1.48;;;;;;;16.15;77.09;99065.25;4897308;29;20073;-66
2022/09/04 05:38:21;;;;;;;2.92;2.63;;;;;;;16.25;76.69;99064.75;4898082;29;20110;-65
2022/09/04 05:41:06;;;;;;;;;;;;;;;16.33;76.78;99075.94;4898891;29;20099;-66
2022/09/04 05:43:48;;;;;;;1.80;1.65;;;;;;;16.44;76.51;99085.03;4897182;29;20343;-67
2022/09/04 05:46:18;;;;;;;1.65;1.55;;;;;;;16.56;76.48;99085.91;4897947;29;20057;-65
2022/09/04 05:49:04;;;;;;;2.38;1.80;;;;;;;16.67;75.36;99080.88;4897891;29;20053;-67
2022/09/04 05:52:03;;;;;;;2.00;1.85;;;;;;;16.73;75.61;99083.47;4898183;29;20394;-68
2022/09/04 05:54:58;;;;;;;1.30;1.15;;;;;;;16.85;75.77;99086.19;4896984;29;20052;-66
2022/09/04 05:57:36;;;;;;;0.82;0.82;;;;;;;16.96;75.55;99085.44;4880977;29;20441;-66
2022/09/04 06:00:15;;;;;;;0.90;0.90;;;;;;;17.02;75.70;99095.22;4898021;29;20052;-65
2022/09/04 06:03:19;;;;;;;0.70;0.70;;;;;;;17.08;75.61;99091.63;4896662;29;20292;-66
2022/09/04 06:06:23;;;;;;;1.30;1.20;;;;;;;17.17;74.81;99094.78;4891947;29;20064;-67
2022/09/04 06:09:27;;;;;;;2.65;2.45;;;;;;;17.18;74.46;99096.41;4899025;29;20049;-69
2022/09/04 06:12:27;;;;;;;3.88;3.33;;;;;;;17.13;73.89;99098.13;4888325;29;20260;-67
2022/09/04 06:15:31;;;;;;;4.90;3.80;;;;;;;17.13;74.26;99100.81;4898222;29;20418;-65
2022/09/04 06:18:17;;;;;;;4.53;3.28;;;;;;;17.19;74.12;99107.94;4897825;29;20052;-66
2022/09/04 06:21:42;;;;;;;3.10;2.80;;;;;;;17.27;73.53;99108.41;4898164;29;20080;-66
2022/09/04 06:24:18;;;;;;;3.25;2.45;;;;;;;17.30;73.83;99112.47;4842857;29;20699;-66
2022/09/04 06:27:22;;;;;;;2.13;2.00;;;;;;;17.36;73.48;99111.56;4897292;29;20049;-66
2022/09/04 06:29:52;;;;;;;2.50;2.30;;;;;;;17.40;73.52;99115.41;4897640;29;20112;-69
2022/09/04 06:32:18;;;;;;;1.70;1.60;;;;;;;17.46;73.66;99109.13;4897137;29;20041;-66
2022/09/04 06:35:08;;;;;;;2.40;2.20;;;;;;;17.58;73.38;99117.19;4890185;29;20052;-66
2022/09/04 06:38:00;;;;;;;1.80;1.70;;;;;;;17.69;73.04;99128.94;4897300;29;20100;-68
2022/09/04 06:40:41;;;;;;;2.08;1.92;;;;;;;17.81;72.61;99132.47;4897520;29;20542;-67
2022/09/04 06:43:31;;;;;;;2.95;2.75;;;;;;;17.94;72.27;99129.56;4896226;29;20519;-67
2022/09/04 06:46:28;;;;;;;3.15;2.80;;;;;;;18.05;72.27;99130.63;4896291;29;20056;-68
2022/09/04 06:49:17;;;;;;;3.10;2.90;;;;;;;18.14;72.55;99131.88;4896169;29;20052;-67
2022/09/04 06:51:56;;;;;;;1.90;1.80;;;;;;;18.25;72.85;99132.94;4897763;29;20048;-68
2022/09/04 06:54:45;;;;;;;2.72;2.05;;;;;;;18.27;72.54;99134.31;4896124;29;20067;-67
2022/09/04 06:57:24;;;;;;;1.73;1.63;;;;;;;18.24;72.82;99132.09;4897508;29;20044;-69
2022/09/04 06:59:57;;;;;;;2.20;2.00;;;;;;;18.24;72.94;99144.66;4897211;29;20055;-67
2022/09/04 07:02:27;;;;;;;2.55;2.35;;;;;;;18.22;72.23;99144.09;4897895;29;20055;-67
2022/09/04 07:05:16;;;;;;;2.05;1.88;;;;;;;18.20;72.61;99138.97;4892000;29;20045;-67
2022/09/04 07:08:11;;;;;;;1.80;1.70;;;;;;;18.25;72.91;99141.78;4896466;29;20059;-67
2022/09/04 07:11:13;;;;;;;1.70;1.60;;;;;;;18.35;73.01;99140.38;4895820;29;20063;-67
2022/09/04 07:14:15;;;;;;;1.98;1.88;;;;;;;18.44;72.57;99133.59;4895700;29;20052;-65
2022/09/04 07:17:04;;;;;;;3.22;2.20;;;;;;;18.56;72.56;99142.41;4879668;29;20497;-65
2022/09/04 07:19:34;;;;;;;1.63;1.52;;;;;;;18.69;72.57;99146.69;4900422;29;20084;-65
2022/09/04 07:22:05;;;;;;;1.40;1.30;;;;;;;18.78;72.48;99142.66;4900725;29;20044;-66
2022/09/04 07:24:51;;;;;;;3.10;2.80;;;;;;;18.87;72.24;99151.91;4900783;29;20064;-67
2022/09/04 07:27:59;;;;;;;2.47;2.28;;;;;;;18.89;72.13;99157.03;4899193;29;20405;-67
2022/09/04 07:30:30;;;;;;;1.83;1.67;;;;;;;18.91;72.19;99158.44;4899864;29;20045;-65
2022/09/04 07:33:06;;;;;;;2.05;1.90;;;;;;;18.94;72.14;99159.81;4898442;29;20053;-65
2022/09/04 07:35:38;;;;;;;1.90;1.80;;;;;;;18.97;72.33;99160.16;4896034;29;20044;-66
2022/09/04 07:38:35;;;;;;;1.50;1.40;;;;;;;19.04;72.00;99163.50;4900446;29;20079;-66
2022/09/04 07:41:20;;;;;;;1.63;1.52;;;;;;;19.11;72.42;99163.38;4900554;29;20049;-67
2022/09/04 07:44:03;;;;;;;4.03;3.45;;;;;;;19.22;72.15;99165.16;4899419;29;20453;-68
2022/09/04 07:46:49;;;;;;;3.10;2.80;;;;;;;19.32;71.95;99163.75;4899118;29;20408;-66
2022/09/04 07:49:29;;;;;;;2.90;2.70;;;;;;;19.37;71.60;99172.69;4900638;29;20059;-67
2022/09/04 07:52:24;;;;;;;6.15;4.20;;;;;;;19.36;71.75;99176.44;4899274;29;20123;-67
2022/09/04 07:55:21;;;;;;;5.22;4.07;;;;;;;19.35;72.28;99172.13;4900192;29;20049;-68
2022/09/04 07:58:13;;;;;;;3.83;2.92;;;;;;;19.40;72.51;99176.75;4899923;29;20045;-67
2022/09/04 08:01:00;;;;;;;2.67;2.33;;;;;;;19.48;72.43;99182.53;4898899;29;20055;-67
2022/09/04 08:03:59;;;;;;;3.10;1.75;;;;;;;19.59;72.69;99185.38;4894117;29;20041;-66
2022/09/04 08:06:36;;;;;;;2.53;2.33;;;;;;;19.68;72.49;99182.13;4862425;29;20049;-67
2022/09/04 08:09:22;;;;;;;1.98;1.88;;;;;;;19.77;72.46;99182.53;4876991;29;20109;-66
2022/09/04 08:12:10;;;;;;;1.70;1.60;;;;;;;19.89;72.46;99191.31;4862606;29;20042;-66
2022/09/04 08:14:44;;;;;;;1.77;1.67;;;;;;;19.99;72.40;99196.00;4862682;29;20054;-66
2022/09/04 08:17:41;;;;;;;2.00;1.90;;;;;;;20.08;72.07;99197.22;4845475;29;20041;-66
2022/09/04 08:20:15;;;;;;;1.88;1.77;;;;;;;20.18;72.21;99202.75;4862596;29;20060;-68
2022/09/04 08:23:00;;;;;;;1.50;1.40;;;;;;;20.28;71.76;99194.84;4862700;29;20054;-67
2022/09/04 08:25:39;;;;;;;1.63;1.52;;;;;;;20.37;72.04;99206.00;4862337;29;20057;-68
2022/09/04 08:28:23;;;;;;;1.85;1.75;;;;;;;20.47;71.56;99203.44;4862219;29;20053;-68
2022/09/04 08:31:06;;;;;;;2.05;1.95;;;;;;;20.59;71.53;99205.25;4861738;29;20490;-68
2022/09/04 08:33:36;;;;;;;2.43;2.23;;;;;;;20.66;71.39;99203.22;4883986;29;20528;-68
2022/09/04 08:36:09;;;;;;;2.63;2.42;;;;;;;20.72;71.17;99203.00;4898914;29;20287;-67
2022/09/04 08:38:55;;;;;;;1.70;1.60;;;;;;;20.82;71.44;99205.03;4899531;29;20093;-66
2022/09/04 08:41:35;;;;;;;2.40;2.25;;;;;;;20.91;71.29;99208.09;4898290;29;20057;-66
2022/09/04 08:44:35;;;;;;;2.50;2.30;;;;;;;20.95;70.93;99212.72;4898356;29;20049;-67
2022/09/04 08:47:26;;;;;;;2.13;2.03;;;;;;;21.04;71.18;99210.41;4897835;29;20061;-67
2022/09/04 08:50:08;;;;;;;2.67;2.47;;;;;;;21.13;71.11;99214.25;4899356;29;20052;-67
2022/09/04 08:53:00;;;;;;;2.13;1.98;;;;;;;21.24;71.12;99213.31;4899197;29;20466;-67
2022/09/04 08:55:57;;;;;;;2.15;2.05;;;;;;;21.33;71.08;99216.38;4899096;29;20092;-67
2022/09/04 08:58:48;;;;;;;2.58;2.38;;;;;;;21.45;71.04;99213.56;4898961;29;20104;-67
2022/09/04 09:01:43;;;;;;;2.70;2.50;;;;;;;21.54;70.47;99225.47;4899031;29;20045;-67
2022/09/04 09:04:18;;;;;;;2.35;2.25;;;;;;;21.61;70.54;99215.34;4891696;29;20045;-67
2022/09/04 09:07:02;;;;;;;2.30;2.17;;;;;;;21.69;70.42;99216.75;4861517;29;20053;-67
2022/09/04 09:09:31;;;;;;;;;;;;;;;21.77;70.26;99219.78;4862032;29;20041;-67
2022/09/04 09:12:56;;;;;;;2.15;2.05;;;;;;;21.87;69.87;99223.63;4860509;29;19924;-67
2022/09/04 09:15:50;;;;;;;2.40;2.20;;;;;;;21.99;69.92;99225.09;4859547;29;20510;-67
2022/09/04 09:18:40;;;;;;;2.42;2.28;;;;;;;22.09;69.80;99223.56;4861399;29;20058;-67
2022/09/04 09:21:30;;;;;;;1.95;1.70;;;;;;;22.16;69.42;99221.47;4861971;29;20046;-67
2022/09/04 09:24:12;;;;;;;2.08;1.98;;;;;;;22.26;69.35;99221.56;4861471;29;20053;-68
2022/09/04 09:27:13;;;;;;;1.93;1.83;;;;;;;22.38;68.90;99224.88;4861200;29;20061;-68
2022/09/04 09:29:51;;;;;;;2.17;2.00;;;;;;;22.48;68.57;99221.41;4861372;29;20045;-69
2022/09/04 09:32:40;;;;;;;2.42;2.22;;;;;;;22.52;68.07;99219.84;4870304;29;20073;-68
2022/09/04 09:35:25;;;;;;;1.90;1.80;;;;;;;22.58;67.81;99224.19;4890888;29;20421;-69
2022/09/04 09:38:19;;;;;;;1.90;1.80;;;;;;;22.64;67.43;99214.25;4897069;29;20048;-68
2022/09/04 09:41:13;;;;;;;1.92;1.83;;;;;;;22.72;67.49;99211.06;4898064;29;20561;-68
2022/09/04 09:44:07;;;;;;;1.90;1.80;;;;;;;22.84;67.33;99208.16;4898385;29;20036;-68
2022/09/04 09:46:49;;;;;;;2.20;2.10;;;;;;;22.98;66.93;99212.84;4897928;29;20063;-70
2022/09/04 09:49:49;;;;;;;1.70;1.60;;;;;;;23.12;66.63;99212.34;4898097;29;20064;-68
2022/09/04 09:52:50;;;;;;;1.80;1.70;;;;;;;23.22;66.39;99205.06;4898115;29;20052;-69
2022/09/04 09:55:35;;;;;;;2.20;2.10;;;;;;;23.30;65.85;99201.03;4896990;29;20044;-67
2022/09/04 09:58:32;;;;;;;2.08;1.92;;;;;;;23.38;65.38;99210.50;4881309;29;20067;-68
2022/09/04 10:01:07;;;;;;;2.15;2.05;;;;;;;23.35;65.14;99203.78;4896943;29;20044;-69
2022/09/04 10:04:10;;;;;;;1.80;1.70;;;;;;;23.35;65.09;99202.94;4891241;29;20486;-69
2022/09/04 10:07:15;;;;;;;4.30;2.60;;;;;;;23.44;64.11;99190.56;4874754;29;20054;-68
2022/09/04 10:10:02;;;;;;;2.75;2.55;;;;;;;23.24;64.35;99192.13;4875046;29;20110;-68
2022/09/04 10:12:58;;;;;;;2.42;2.33;;;;;;;23.17;64.73;99193.47;4859387;29;20525;-67
2022/09/04 10:15:44;;;;;;;2.20;2.10;;;;;;;23.14;64.62;99202.06;4874649;29;20049;-68
2022/09/04 10:19:04;;;;;;;2.63;2.42;;;;;;;23.11;64.61;99195.34;4902256;23;20071;-70
2022/09/04 10:21:49;;;;;;;2.42;2.22;;;;;;;23.05;64.66;99199.09;4868775;29;20053;-70
2022/09/04 10:24:43;;;;;;;2.00;1.90;;;;;;;22.98;64.35;99206.59;4861671;29;20044;-70
2022/09/04 10:27:09;;;;;;;;;;;;;;;22.93;64.53;99198.50;4858641;29;20510;-70
2022/09/04 10:29:59;;;;;;;2.20;2.00;;;;;;;22.92;64.49;99203.09;4879094;29;19932;-69
2022/09/04 10:32:31;;;;;;;2.00;1.90;;;;;;;22.92;64.15;99205.78;4884568;29;20044;-70
2022/09/04 10:35:02;;;;;;;2.10;1.98;;;;;;;22.98;64.52;99203.91;4889655;29;20136;-70
2022/09/04 10:37:46;;;;;;;2.40;2.20;;;;;;;23.15;64.05;99201.03;4897467;29;20056;-70
2022/09/04 10:40:38;;;;;;;2.10;2.00;;;;;;;23.31;63.47;99202.69;4897885;29;20048;-70
2022/09/04 10:43:29;;;;;;;2.33;2.17;;;;;;;23.59;63.35;99198.66;4897503;29;20044;-70
2022/09/04 10:46:24;;;;;;;2.40;2.20;;;;;;;23.69;62.79;99198.72;4898062;29;20048;-73
2022/09/04 10:48:57;;;;;;;2.58;2.38;;;;;;;23.76;62.19;99195.75;4897770;29;20462;-70
2022/09/04 10:51:38;;;;;;;2.20;2.10;;;;;;;23.85;62.60;99199.53;4897636;29;20123;-71
2022/09/04 10:54:29;;;;;;;3.00;2.80;;;;;;;23.89;62.12;99197.13;4920450;29;20052;-69
2022/09/04 10:57:30;;;;;;;2.03;1.92;;;;;;;24.00;60.56;99198.72;4907613;29;20049;-70
2022/09/04 11:00:31;;;;;;;2.47;2.00;;;;;;;24.15;59.31;99192.50;4907390;29;20052;-70
2022/09/04 11:03:27;;;;;;;2.00;1.80;;;;;;;24.31;57.85;99194.09;4882891;29;20489;-71
2022/09/04 11:06:16;;;;;;;1.65;1.55;;;;;;;24.32;57.29;99186.78;4902504;29;20139;-71
2022/09/04 11:09:09;;;;;;;1.42;1.33;;;;;;;24.23;56.71;99191.94;4906693;29;20382;-70
2022/09/04 11:11:51;;;;;;;1.40;1.30;;;;;;;24.19;56.23;99188.16;4908413;29;20068;-70
2022/09/04 11:14:52;;;;;;;1.67;1.40;;;;;;;24.13;54.83;99179.28;4909513;29;20049;-70
2022/09/04 11:17:57;;;;;;;1.58;1.48;;;;;;;24.26;54.25;99177.91;4906079;29;20059;-70
2022/09/04 11:20:44;;;;;;;1.30;1.20;;;;;;;24.43;53.93;99186.53;4875536;29;20065;-71
2022/09/04 11:23:17;;;;;;;1.80;1.70;;;;;;;24.49;53.39;99181.91;4909363;29;20049;-71
2022/09/04 11:26:12;;;;;;;1.85;1.73;;;;;;;24.51;53.01;99173.56;4907332;29;20068;-72
2022/09/04 11:28:50;;;;;;;1.10;1.10;;;;;;;24.56;53.21;99174.34;4906168;29;20060;-71
2022/09/04 11:31:31;;;;;;;1.08;1.08;;;;;;;24.67;52.91;99175.13;4899723;29;20059;-71
2022/09/04 11:34:29;;;;;;;1.27;1.17;;;;;;;24.63;52.06;99171.34;4890091;29;20041;-71
2022/09/04 11:37:28;;;;;;;1.60;1.50;;;;;;;24.59;51.38;99170.28;4901603;29;20063;-69
2022/09/04 11:40:07;;;;;;;1.10;1.02;;;;;;;24.59;50.51;99178.38;4898773;29;20053;-71
2022/09/04 11:43:12;;;;;;;1.05;1.02;;;;;;;24.64;49.61;99164.84;4897245;29;20048;-72
2022/09/04 11:45:55;;;;;;;1.02;0.90;;;;;;;24.66;48.77;99162.69;4893432;29;20052;-71
2022/09/04 11:48:52;;;;;;;1.30;1.20;;;;;;;24.70;48.69;99158.34;4897262;29;20044;-68
2022/09/04 11:51:33;;;;;;;1.10;1.10;;;;;;;24.94;48.30;99161.19;4896937;29;20505;-71
2022/09/04 11:54:10;;;;;;;1.05;0.98;;;;;;;25.25;47.80;99163.78;4896299;29;20048;-70
2022/09/04 11:56:53;;;;;;;1.10;1.00;;;;;;;25.51;47.70;99165.22;4896354;29;20053;-70
2022/09/04 11:59:31;;;;;;;1.00;1.00;;;;;;;25.77;46.62;99167.75;4896015;29;20056;-72
2022/09/04 12:02:22;;;;;;;1.33;1.23;;;;;;;25.94;45.35;99163.53;4895791;29;20053;-67
2022/09/04 12:04:52;;;;;;;1.02;1.00;;;;;;;26.10;45.30;99164.22;4888752;29;20056;-72
2022/09/04 12:07:40;;;;;;;0.93;0.93;;;;;;;26.23;44.22;99170.84;4914853;29;20076;-71
2022/09/04 12:10:08;;;;;;;1.20;1.10;;;;;;;26.07;43.91;99169.38;4900719;29;20045;-71
2022/09/04 12:12:57;;;;;;;0.98;0.98;;;;;;;26.02;43.96;99169.44;4900568;29;20048;-71
2022/09/04 12:15:34;;;;;;;1.38;0.98;;;;;;;26.08;43.58;99174.50;4900675;29;20056;-71
2022/09/04 12:18:32;;;;;;;1.30;1.20;;;;;;;25.93;42.06;99166.56;4883266;29;20289;-70
2022/09/04 12:21:16;;;;;;;1.45;1.10;;;;;;;25.89;42.16;99163.59;4900443;29;20052;-70
2022/09/04 12:24:06;;;;;;;1.10;1.05;;;;;;;26.12;42.12;99167.44;4899064;29;20143;-69
2022/09/04 12:27:10;;;;;;;1.00;1.00;;;;;;;26.35;41.61;99179.41;4899836;29;20059;-69
2022/09/04 12:29:46;;;;;;;0.82;0.82;;;;;;;26.53;40.97;99169.75;4898840;29;20493;-69
2022/09/04 12:32:25;;;;;;;1.00;1.00;;;;;;;26.73;40.19;99163.28;4899807;29;20048;-70
2022/09/04 12:34:57;;;;;;;0.80;0.80;;;;;;;26.96;40.32;99166.25;4892236;29;20127;-70
2022/09/04 12:37:35;;;;;;;0.80;0.80;;;;;;;27.13;39.13;99167.38;4899838;29;20049;-71
2022/09/04 12:40:49;;;;;;;0.82;0.82;;;;;;;27.14;38.50;99163.56;4900550;29;20135;-70
2022/09/04 12:43:24;;;;;;;0.80;0.80;;;;;;;27.39;39.01;99161.59;4827868;29;20220;-70
2022/09/04 12:46:02;;;;;;;0.70;0.70;;;;;;;27.68;38.40;99153.28;4896025;29;20064;-70
2022/09/04 12:48:45;;;;;;;0.95;0.95;;;;;;;27.77;37.80;99164.31;4898611;29;20079;-69
2022/09/04 12:51:23;;;;;;;0.80;0.80;;;;;;;27.88;37.64;99165.72;4899481;29;20564;-70
2022/09/04 12:53:56;;;;;;;0.85;0.85;;;;;;;28.02;36.62;99169.28;4898798;29;20045;-70
2022/09/04 12:56:46;;;;;;;0.85;0.80;;;;;;;27.87;36.29;99164.91;4899289;29;20068;-70
2022/09/04 12:59:30;;;;;;;0.80;0.80;;;;;;;27.99;36.03;99160.94;4899723;29;20099;-70
2022/09/04 13:02:11;;;;;;;0.77;0.70;;;;;;;28.10;35.71;99160.47;4899538;29;20051;-70
2022/09/04 13:04:56;;;;;;;0.90;0.90;;;;;;;28.24;35.64;99171.34;4890668;29;20511;-69
2022/09/04 13:07:47;;;;;;;0.70;0.70;;;;;;;28.36;35.25;99162.72;4899400;29;20063;-71
2022/09/04 13:10:22;;;;;;;0.80;0.80;;;;;;;28.43;34.36;99154.19;4899471;29;20053;-70
2022/09/04 13:13:22;;;;;;;0.98;0.80;;;;;;;28.38;35.15;99165.97;4898425;29;20056;-70